createdAt,value
2023-02-26T05:03:37.268Z,85.30
2023-02-26T05:18:41.823Z,86.60
2023-02-26T05:33:46.534Z,87.80
2023-02-26T05:48:50.918Z,87.90
2023-02-26T06:03:55.424Z,88.50
2023-02-26T06:18:59.904Z,88.80
2023-02-26T06:34:04.669Z,89.10
2023-02-26T06:49:09.378Z,89.60
2023-02-26T07:04:13.831Z,90.20
2023-02-26T07:19:18.329Z,91.20
2023-02-26T07:34:22.845Z,91.00
2023-02-26T07:49:27.297Z,91.00
2023-02-26T08:04:33.008Z,91.50
2023-02-26T08:19:37.524Z,91.10
2023-02-26T08:34:41.955Z,91.20
2023-02-26T08:49:46.396Z,90.70
2023-02-26T09:04:50.810Z,91.00
2023-02-26T09:19:55.201Z,88.40
2023-02-26T09:47:20.072Z,82.90
2023-02-26T10:02:39.346Z,79.80
2023-02-26T10:17:53.201Z,77.40
2023-02-26T10:33:04.817Z,72.10
2023-02-26T10:48:21.899Z,71.90
2023-02-26T11:03:33.437Z,66.40
2023-02-26T11:18:42.581Z,65.90
2023-02-26T11:33:51.594Z,65.40
2023-02-26T11:48:59.505Z,65.80
2023-02-26T12:04:05.217Z,63.00
2023-02-26T12:19:15.366Z,63.10
2023-02-26T12:34:38.294Z,63.80
2023-02-26T12:50:13.836Z,64.20
2023-02-26T13:05:35.325Z,62.90
2023-02-26T13:20:48.299Z,60.80
2023-02-26T13:35:55.147Z,60.00
2023-02-26T13:51:09.072Z,59.50
2023-02-26T14:06:27.695Z,60.10
2023-02-26T14:21:48.232Z,56.80
2023-02-26T14:36:55.898Z,56.80
2023-02-26T14:52:24.956Z,57.10
2023-02-26T15:07:42.604Z,57.10
2023-02-26T15:23:02.178Z,52.60
2023-02-26T15:38:07.231Z,50.50
2023-02-26T15:53:17.679Z,49.20
2023-02-26T16:08:22.612Z,49.80
2023-02-26T16:23:33.777Z,53.80
2023-02-26T16:38:49.932Z,54.80
2023-02-26T16:53:59.355Z,57.00
2023-02-26T17:09:10.055Z,56.90
2023-02-26T17:24:19.408Z,58.10
2023-02-26T17:39:24.817Z,60.70
2023-02-26T17:54:29.881Z,59.70
2023-02-26T18:09:34.929Z,58.70
2023-02-26T18:24:40.489Z,58.70
2023-02-26T18:39:45.635Z,59.20
2023-02-26T18:54:50.568Z,58.60
2023-02-26T19:09:55.858Z,59.40
2023-02-26T19:25:00.907Z,59.30
2023-02-26T19:40:10.171Z,59.80
2023-02-26T19:55:15.702Z,59.80
2023-02-26T20:10:23.543Z,60.50
2023-02-26T20:25:29.914Z,61.70
2023-02-26T20:40:35.401Z,60.80
2023-02-26T20:55:41.654Z,61.60
2023-02-26T21:10:47.759Z,61.60
2023-02-26T21:25:53.256Z,61.60
2023-02-26T21:40:58.516Z,62.40
2023-02-26T21:56:03.045Z,64.20
2023-02-26T22:11:07.650Z,63.90
2023-02-26T22:26:12.175Z,63.30
2023-02-26T22:41:17.136Z,64.20
2023-02-26T22:56:21.592Z,64.80
2023-02-26T23:11:26.387Z,65.00
2023-02-26T23:26:31.062Z,66.00
2023-02-26T23:41:35.800Z,66.90
2023-02-26T23:56:40.282Z,70.20
